モンテレー の空港の天気 - METARとTAF

ヘネラル・マリアノ・エソコベド国際空港 ( MMMY / MTY ) - メキシコ ヌエボ・レオン州モンテレー
飛行場実況気象(Metar)
観測時間10/19 22:40 CDT (10/20 03:40 UTC)
風向・風速静穏 0m/s
視程10km以上
天気現象
なし
気温26℃
湿度65%
気圧1009hPa
METARMMMY 200340Z 00000KT 10SM SKC 26/19 A2979
過去の天気等 Google飛行場航空写真 Wunderground天気予報

過去48時間のMETAR

飛行場予報(TAF)
発表時間: 10/19 18:15 CDT (10/19 23:15 UTC)
予報対象時間: 19日19時 CDT ~ 21日1時 CDT
風向・風速南東 5m/s
視程10km以上
なし
20日6時 CDT ~ 20日10時 CDT に一時的に
全天の8割程度の雲 雲底高度 610m
20日15時 CDT から
風向・風速東南東 5m/s
視程10km以上
全天の8割程度の雲 雲底高度 910m
全天の8割程度の雲 雲底高度 2440m
20日17時 CDT から 確率 40% で
視程8050m
天気現象
TAF MMMY 192315Z 2000/2106 14010KT P6SM SKC TX34/2021Z TN18/2012Z
TEMPO 2011/2015 BKN020
FM202000 12010KT P6SM BKN030 BKN080
PROB40 2022/2102 5SM RA